sensor_id;sensor_type;location;lat;lon;timestamp;P1;P2;P0
47711;PMS7003;57457;51.634;5.886;2023-12-29T00:12:05;0.01;2.41;1.43
47711;PMS7003;57457;51.634;5.886;2023-12-29T00:25:25;1.44;2.41;1.43
47711;PMS7003;57457;51.634;5.886;2023-12-29T00:38:45;0.01;2.73;1.54
47711;PMS7003;57457;51.634;5.886;2023-12-29T00:52:04;0.01;2.3;1.32
47711;PMS7003;57457;51.634;5.886;2023-12-29T01:05:24;0.01;2.3;1.43
47711;PMS7003;57457;51.634;5.886;2023-12-29T01:18:43;3.73;3.5;1.86
47711;PMS7003;57457;51.634;5.886;2023-12-29T01:32:03;0.01;2.41;1.43
47711;PMS7003;57457;51.634;5.886;2023-12-29T01:45:23;1.56;3.5;1.97
47711;PMS7003;57457;51.634;5.886;2023-12-29T01:58:42;1.92;3.71;2.08
47711;PMS7003;57457;51.634;5.886;2023-12-29T02:12:02;3.48;4.37;2.41
47711;PMS7003;57457;51.634;5.886;2023-12-29T02:25:21;8.89;5.02;2.52
47711;PMS7003;57457;51.634;5.886;2023-12-29T02:38:41;1.8;4.15;2.52
47711;PMS7003;57457;51.634;5.886;2023-12-29T02:52:01;3.6;3.82;2.19
47711;PMS7003;57457;51.634;5.886;2023-12-29T03:05:20;0.48;3.06;1.64
47711;PMS7003;57457;51.634;5.886;2023-12-29T03:18:40;0.6;1.97;1.54
47711;PMS7003;57457;51.634;5.886;2023-12-29T03:32:00;2.16;2.73;1.43
47711;PMS7003;57457;51.634;5.886;2023-12-29T03:45:19;1.2;2.95;1.54
47711;PMS7003;57457;51.634;5.886;2023-12-29T03:58:39;0.01;2.73;1.43
47711;PMS7003;57457;51.634;5.886;2023-12-29T04:11:58;0.6;3.06;1.54
47711;PMS7003;57457;51.634;5.886;2023-12-29T04:25:18;4.33;2.62;1.43
47711;PMS7003;57457;51.634;5.886;2023-12-29T04:38:38;2.4;2.52;1.64
47711;PMS7003;57457;51.634;5.886;2023-12-29T04:51:57;0.01;2.3;1.54
47711;PMS7003;57457;51.634;5.886;2023-12-29T05:05:17;1.44;2.62;1.43
47711;PMS7003;57457;51.634;5.886;2023-12-29T05:18:37;0.96;3.06;1.86
47711;PMS7003;57457;51.634;5.886;2023-12-29T05:31:56;4.09;2.62;1.32
47711;PMS7003;57457;51.634;5.886;2023-12-29T05:45:16;2.16;2.62;1.43
47711;PMS7003;57457;51.634;5.886;2023-12-29T05:58:35;2.28;2.73;1.43
47711;PMS7003;57457;51.634;5.886;2023-12-29T06:11:55;0.48;2.73;1.54
47711;PMS7003;57457;51.634;5.886;2023-12-29T06:25:15;2.16;2.95;1.32
47711;PMS7003;57457;51.634;5.886;2023-12-29T06:38:34;3.48;2.52;1.43
47711;PMS7003;57457;51.634;5.886;2023-12-29T06:51:54;0.01;2.62;1.54
47711;PMS7003;57457;51.634;5.886;2023-12-29T07:05:13;0.01;2.52;1.43
47711;PMS7003;57457;51.634;5.886;2023-12-29T07:18:33;2.28;2.84;1.64
47711;PMS7003;57457;51.634;5.886;2023-12-29T07:45:12;0.01;2.73;1.54
47711;PMS7003;57457;51.634;5.886;2023-12-29T07:58:32;1.8;3.06;1.86
47711;PMS7003;57457;51.634;5.886;2023-12-29T08:11:52;1.44;2.95;1.64
47711;PMS7003;57457;51.634;5.886;2023-12-29T08:25:11;3.85;2.84;1.86
47711;PMS7003;57457;51.634;5.886;2023-12-29T08:38:31;0.6;3.28;1.75
47711;PMS7003;57457;51.634;5.886;2023-12-29T08:51:50;0.12;2.08;1.21
47711;PMS7003;57457;51.634;5.886;2023-12-29T09:05:10;0.01;2.19;1.43
47711;PMS7003;57457;51.634;5.886;2023-12-29T09:18:30;0.01;1.97;1.21
47711;PMS7003;57457;51.634;5.886;2023-12-29T09:31:49;0.48;1.86;1.21
47711;PMS7003;57457;51.634;5.886;2023-12-29T09:45:09;0.01;1.64;1.21
47711;PMS7003;57457;51.634;5.886;2023-12-29T09:58:28;0.01;1.75;1.21
47711;PMS7003;57457;51.634;5.886;2023-12-29T10:11:48;0.01;1.75;
47711;PMS7003;57457;51.634;5.886;2023-12-29T10:25:07;0.01;1.32;
47711;PMS7003;57457;51.634;5.886;2023-12-29T10:38:27;0.01;1.32;
47711;PMS7003;57457;51.634;5.886;2023-12-29T10:51:47;0.01;1.32;
47711;PMS7003;57457;51.634;5.886;2023-12-29T11:05:06;0.01;1.43;
47711;PMS7003;57457;51.634;5.886;2023-12-29T11:18:26;0.01;1.64;1.21
47711;PMS7003;57457;51.634;5.886;2023-12-29T11:31:45;0.01;2.3;1.32
47711;PMS7003;57457;51.634;5.886;2023-12-29T11:45:05;0.01;1.86;1.21
47711;PMS7003;57457;51.634;5.886;2023-12-29T11:58:25;0.36;2.3;1.43
47711;PMS7003;57457;51.634;5.886;2023-12-29T12:11:44;0.01;2.41;1.43
47711;PMS7003;57457;51.634;5.886;2023-12-29T12:25:04;0.01;1.75;1.21
47711;PMS7003;57457;51.634;5.886;2023-12-29T12:38:23;0.12;1.86;1.32
47711;PMS7003;57457;51.634;5.886;2023-12-29T12:51:43;0.84;1.86;1.32
47711;PMS7003;57457;51.634;5.886;2023-12-29T13:05:03;0.01;1.75;1.32
47711;PMS7003;57457;51.634;5.886;2023-12-29T13:18:22;0.01;1.54;1.21
47711;PMS7003;57457;51.634;5.886;2023-12-29T13:31:42;0.01;2.19;1.32
47711;PMS7003;57457;51.634;5.886;2023-12-29T13:45:02;0.01;1.97;1.21
47711;PMS7003;57457;51.634;5.886;2023-12-29T13:58:21;0.01;2.62;1.64
47711;PMS7003;57457;51.634;5.886;2023-12-29T14:11:41;0.48;3.17;2.08
47711;PMS7003;57457;51.634;5.886;2023-12-29T14:25:00;0.01;2.73;2.08
47711;PMS7003;57457;51.634;5.886;2023-12-29T14:38:20;0.01;2.41;1.54
47711;PMS7003;57457;51.634;5.886;2023-12-29T14:51:40;1.32;2.19;1.43
47711;PMS7003;57457;51.634;5.886;2023-12-29T15:04:59;0.01;1.86;1.21
47711;PMS7003;57457;51.634;5.886;2023-12-29T15:18:19;0.72;2.08;1.54
47711;PMS7003;57457;51.634;5.886;2023-12-29T15:31:38;0.01;1.75;1.43
47711;PMS7003;57457;51.634;5.886;2023-12-29T15:44:58;0.01;1.86;1.21
47711;PMS7003;57457;51.634;5.886;2023-12-29T15:58:18;0.01;1.86;1.21
47711;PMS7003;57457;51.634;5.886;2023-12-29T16:11:37;0.01;2.52;1.54
47711;PMS7003;57457;51.634;5.886;2023-12-29T16:24:57;0.01;2.52;1.75
47711;PMS7003;57457;51.634;5.886;2023-12-29T16:38:17;0.12;2.84;1.75
47711;PMS7003;57457;51.634;5.886;2023-12-29T16:51:36;0.01;2.62;1.43
47711;PMS7003;57457;51.634;5.886;2023-12-29T17:04:56;0.0;2.84;1.86
47711;PMS7003;57457;51.634;5.886;2023-12-29T17:18:16;0.84;3.28;2.19
47711;PMS7003;57457;51.634;5.886;2023-12-29T17:31:35;2.28;2.62;1.75
47711;PMS7003;57457;51.634;5.886;2023-12-29T17:44:55;0.01;2.84;1.64
47711;PMS7003;57457;51.634;5.886;2023-12-29T17:58:14;1.68;3.39;1.97
47711;PMS7003;57457;51.634;5.886;2023-12-29T18:11:34;0.36;3.28;1.97
47711;PMS7003;57457;51.634;5.886;2023-12-29T18:24:54;2.04;3.28;1.97
47711;PMS7003;57457;51.634;5.886;2023-12-29T18:38:13;2.4;2.84;1.75
47711;PMS7003;57457;51.634;5.886;2023-12-29T18:51:33;1.32;2.62;1.43
47711;PMS7003;57457;51.634;5.886;2023-12-29T19:04:52;0.01;2.84;1.64
47711;PMS7003;57457;51.634;5.886;2023-12-29T19:18:12;0.6;2.62;1.32
47711;PMS7003;57457;51.634;5.886;2023-12-29T19:31:32;2.88;3.39;1.64
47711;PMS7003;57457;51.634;5.886;2023-12-29T19:44:51;3.12;2.52;1.54
47711;PMS7003;57457;51.634;5.886;2023-12-29T20:11:31;5.05;3.39;1.54
47711;PMS7003;57457;51.634;5.886;2023-12-29T20:24:50;4.33;4.8;2.73
47711;PMS7003;57457;51.634;5.886;2023-12-29T20:38:10;8.89;6.77;4.04
47711;PMS7003;57457;51.634;5.886;2023-12-29T20:51:29;5.05;6.22;3.82
47711;PMS7003;57457;51.634;5.886;2023-12-29T21:04:49;8.53;6.77;3.5
47711;PMS7003;57457;51.634;5.886;2023-12-29T21:18:09;5.89;5.24;2.62
47711;PMS7003;57457;51.634;5.886;2023-12-29T21:31:28;2.28;4.26;2.19
47711;PMS7003;57457;51.634;5.886;2023-12-29T21:58:08;5.41;3.71;1.64
47711;PMS7003;57457;51.634;5.886;2023-12-29T22:11:27;0.84;3.82;1.75
47711;PMS7003;57457;51.634;5.886;2023-12-29T22:24:47;4.09;4.26;1.75
47711;PMS7003;57457;51.634;5.886;2023-12-29T22:38:06;4.09;3.5;1.64
47711;PMS7003;57457;51.634;5.886;2023-12-29T22:51:26;7.69;7.42;2.84
47711;PMS7003;57457;51.634;5.886;2023-12-29T23:04:46;2.4;4.26;1.64
47711;PMS7003;57457;51.634;5.886;2023-12-29T23:18:05;4.21;4.26;1.86
47711;PMS7003;57457;51.634;5.886;2023-12-29T23:31:25;5.17;4.59;1.86
47711;PMS7003;57457;51.634;5.886;2023-12-29T23:44:44;4.81;4.04;1.75
47711;PMS7003;57457;51.634;5.886;2023-12-29T23:58:04;1.8;4.26;1.97
